ADDS METAR Data INFO
IDs: Format: Raw Decoded Include TAF

Data at: 2148 UTC 15 Dec 2017

KBKS 152135Z AUTO 00000KT 10SM SCT045 BKN060 OVC090 10/07 A3028 RMK AO1 T01040072
KBKS 152115Z AUTO 00000KT 10SM SCT043 BKN060 OVC070 11/07 A3029 RMK AO1 T01050073
KBKS 152055Z AUTO 00000KT 10SM BKN050 BKN080 BKN095 11/07 A3029 RMK AO1 T01050070
KBKS 152035Z AUTO 00000KT 10SM SCT033 SCT050 BKN095 11/07 A3029 RMK AO1 T01050066
KBKS 152015Z AUTO 00000KT 10SM OVC095 10/06 A3028 RMK AO1 T01030061
KBKS 151955Z AUTO 00000KT 10SM SCT048 SCT075 OVC095 10/06 A3029 RMK AO1 T01000062
KBKS 151935Z AUTO 33005KT 10SM SCT055 SCT065 OVC095 10/06 A3029 RMK AO1 T00970059
KBKS 151915Z AUTO 33005KT 10SM SCT055 SCT070 BKN095 10/06 A3030 RMK AO1 T00950062
KBKS 151855Z AUTO 32003KT 10SM SCT080 OVC095 10/06 A3032 RMK AO1 T00950060
KBKS 151835Z AUTO 00000KT 10SM BKN070 OVC080 10/07 A3034 RMK AO1 T00950066
KBKS 151815Z AUTO 00000KT 10SM BKN060 OVC080 09/07 A3035 RMK AO1 T00930069
KBKS 151755Z AUTO 00000KT 10SM SCT060 SCT070 OVC080 09/06 A3036 RMK AO1 P0002 60006 T00900064 10096 20081
KBKS 151735Z AUTO 00000KT 10SM SCT050 SCT080 OVC090 09/06 A3037 RMK AO1 P0001 T00890061
KBKS 151715Z AUTO 00000KT 10SM SCT039 SCT050 OVC090 09/06 A3037 RMK AO1 P0001 T00880055
KBKS 151655Z AUTO 33005KT 10SM BKN090 OVC110 09/05 A3037 RMK AO1 T00880051
KBKS 151635Z AUTO 00000KT 10SM SCT090 OVC100 09/06 A3035 RMK AO1 T00860056
KBKS 151615Z AUTO 36007KT 10SM OVC090 09/05 A3034 RMK AO1 T00860052
KBKS 151555Z AUTO 00000KT 10SM OVC090 09/06 A3033 RMK AO1 T00850060
KBKS 151535Z AUTO 00000KT 10SM OVC090 09/06 A3032 RMK AO1 T00850062
KBKS 151515Z AUTO 35005KT 10SM OVC090 08/06 A3030 RMK AO1 T00820060
KBKS 151455Z AUTO 35007KT 10SM SCT065 OVC100 08/06 A3029 RMK AO1 P0001 60004 T00810056
KBKS 151435Z AUTO 36007KT 10SM BKN065 OVC090 08/06 A3028 RMK AO1 P0001 T00810057
KBKS 151415Z AUTO 35006G15KT 10SM BKN065 OVC090 08/06 A3028 RMK AO1 P0001 T00820056
KBKS 151355Z AUTO 35011G16KT 10SM SCT075 OVC090 09/05 A3026 RMK AO1 P0002 T00850053
KBKS 151335Z AUTO 35008G15KT 10SM SCT080 OVC090 09/06 A3025 RMK AO1 P0001 T00900055
KBKS 151315Z AUTO 34010KT 10SM SCT080 OVC100 09/05 A3023 RMK AO1 T00930053
KBKS 151255Z AUTO 34010G14KT 10SM OVC100 10/05 A3022 RMK AO1 P0001 T00950054
KBKS 151235Z AUTO 35009G15KT 10SM BKN090 OVC110 10/06 A3020 RMK AO1 P0001 T00950058
KBKS 151215Z AUTO 36010KT 10SM SCT070 SCT085 OVC110 10/06 A3019 RMK AO1 T00950063
KBKS 151155Z AUTO 35009KT 10SM SCT090 OVC110 10/07 A3019 RMK AO1 P0001 60011 70011 T00960065 10150 20096
KBKS 151135Z AUTO 36009KT 10SM SCT085 OVC110 10/07 A3019 RMK AO1 P0001 T00970066
KBKS 151115Z AUTO 35008G14KT 10SM SCT060 BKN085 OVC100 10/07 A3018 RMK AO1 P0001 T01000069
KBKS 151055Z AUTO 35010G16KT 10SM SCT060 BKN070 OVC100 10/07 A3016 RMK AO1 P0003 T01000070
KBKS 151035Z AUTO 36009G15KT 10SM SCT070 OVC100 10/07 A3015 RMK AO1 P0002 T01010074
KBKS 151015Z AUTO 36008KT 10SM SCT041 SCT065 OVC100 10/07 A3016 RMK AO1 P0001 T01020071
KBKS 150955Z AUTO 36010G16KT 10SM SCT075 BKN085 OVC100 11/07 A3015 RMK AO1 P0001 T01060073
KBKS 150935Z AUTO 36010G16KT 10SM BKN075 OVC110 11/08 A3015 RMK AO1 T01100076
KBKS 150915Z AUTO 36011G17KT 10SM SCT075 OVC090 11/09 A3015 RMK AO1 T01140085
KBKS 150855Z AUTO 35007KT 10SM SCT080 OVC090 12/09 A3014 RMK AO1 P0003 60006 T01170090
KBKS 150835Z AUTO 00000KT 10SM SCT055 SCT075 OVC090 12/09 A3014 RMK AO1 P0002 T01200090
KBKS 150815Z AUTO 35008KT 10SM SCT070 OVC090 12/09 A3013 RMK AO1 P0002 T01200092
KBKS 150755Z AUTO 35007KT 10SM SCT060 SCT070 OVC090 12/10 A3014 RMK AO1 P0003 T01210095
KBKS 150735Z AUTO 00000KT 10SM SCT060 SCT075 OVC090 12/09 A3012 RMK AO1 P0002 T01240093
KBKS 150715Z AUTO 00000KT 10SM SCT060 SCT075 OVC090 13/09 A3011 RMK AO1 P0001 T01270091
KBKS 150655Z AUTO 01006KT 10SM SCT075 OVC090 13/09 A3010 RMK AO1 T01300090
KBKS 150635Z AUTO 00000KT 10SM SCT080 OVC090 14/09 A3009 RMK AO1 T01350091
KBKS 150615Z AUTO 36006KT 10SM OVC090 14/10 A3009 RMK AO1 T01400095
KBKS 150555Z AUTO 36008KT 10SM BKN090 OVC100 15/10 A3009 RMK AO1 T01510099 10170 20151 401850095
KBKS 150535Z AUTO 00000KT 10SM OVC100 16/11 A3009 RMK AO1 T01550113
KBKS 150515Z AUTO 00000KT 10SM BKN100 BKN120 16/12 A3008 RMK AO1 T01600121
KBKS 150455Z AUTO 01008KT 10SM SCT120 16/13 A3006 RMK AO1 T01600130
KBKS 150435Z AUTO 36006KT 10SM SCT100 16/14 A3006 RMK AO1 T01600139
KBKS 150415Z AUTO 35005KT 10SM BKN110 16/14 A3005 RMK AO1 T01610140
KBKS 150355Z AUTO 36003KT 10SM SCT090 SCT110 16/14 A3004 RMK AO1 T01600140
KBKS 150335Z AUTO 36004KT 10SM SCT110 16/14 A3003 RMK AO1 T01590140
KBKS 150315Z AUTO 00000KT 10SM OVC110 16/14 A3002 RMK AO1 T01600140
KBKS 150255Z AUTO 02003KT 10SM OVC110 16/14 A3001 RMK AO1 T01630140
KBKS 150235Z AUTO 02004KT 10SM OVC100 17/14 A3000 RMK AO1 T01650140
KBKS 150215Z AUTO 01003KT 10SM OVC110 17/14 A3001 RMK AO1 T01650138
KBKS 150155Z AUTO 03004KT 10SM OVC110 17/14 A2999 RMK AO1 T01660136
KBKS 150135Z AUTO 06005KT 10SM SCT110 17/13 A2998 RMK AO1 T01660133
KBKS 150115Z AUTO 01004KT 10SM SCT120 17/13 A2997 RMK AO1 T01670128
KBKS 150055Z AUTO 34003KT 10SM BKN110 17/12 A2997 RMK AO1 T01700122
KBKS 150035Z AUTO 00000KT 10SM BKN110 17/12 A2997 RMK AO1 T01670123
KBKS 150015Z AUTO 00000KT 10SM BKN120 17/13 A2995 RMK AO1 T01690125
KBKS 142355Z AUTO 00000KT 10SM BKN120 17/13 A2995 RMK AO1 T01670126 10185 20164
KBKS 142335Z AUTO 00000KT 10SM BKN120 17/13 A2993 RMK AO1 T01670128
KBKS 142315Z AUTO 00000KT 10SM SCT120 17/12 A2991 RMK AO1 T01710123
KBKS 142255Z AUTO 08003KT 10SM SCT120 17/13 A2991 RMK AO1 T01720128
KBKS 142235Z AUTO 00000KT 10SM SCT120 18/13 A2992 RMK AO1 T01770126
KBKS 142215Z AUTO 00000KT 10SM SCT120 18/12 A2993 RMK AO1 T01790124
KBKS 142155Z AUTO 00000KT 10SM BKN110 18/12 A2992 RMK AO1 T01800123
KBKS 142135Z AUTO 00000KT 10SM OVC110 18/12 A2993 RMK AO1 T01810122
KBKS 142115Z AUTO 00000KT 10SM OVC110 18/12 A2993 RMK AO1 T01830120
KBKS 142055Z AUTO 00000KT 10SM OVC110 18/12 A2993 RMK AO1 T01840116
KBKS 142035Z AUTO 00000KT 10SM OVC120 19/12 A2993 RMK AO1 T01850116
KBKS 142015Z AUTO 00000KT 10SM BKN120 18/12 A2994 RMK AO1 T01810119
KBKS 141955Z AUTO 00000KT 10SM BKN120 18/12 A2993 RMK AO1 T01810119
KBKS 141935Z AUTO 00000KT 10SM OVC120 18/12 A2993 RMK AO1 T01790119
KBKS 141915Z AUTO 26003KT 10SM OVC110 18/12 A2995 RMK AO1 T01760116
KBKS 141855Z AUTO 00000KT 10SM OVC120 17/12 A2994 RMK AO1 T01720116
KBKS 141835Z AUTO 00000KT 10SM OVC120 17/12 A2995 RMK AO1 T01700116
KBKS 141815Z AUTO 00000KT 10SM BKN120 17/12 A2995 RMK AO1 T01700115
KBKS 141755Z AUTO 00000KT 10SM SCT120 16/11 A2996 RMK AO1 T01630111 10163 20095
KBKS 141735Z AUTO 00000KT 10SM BKN120 16/11 A2997 RMK AO1 T01590110
KBKS 141715Z AUTO 00000KT 10SM SCT120 15/11 A2998 RMK AO1 T01540108
KBKS 141655Z AUTO 00000KT 10SM CLR 15/11 A2999 RMK AO1 T01500105
KBKS 141635Z AUTO 00000KT 10SM CLR 15/10 A2999 RMK AO1 T01450101
KBKS 141615Z AUTO 00000KT 10SM CLR 14/10 A2998 RMK AO1 T01390096
KBKS 141555Z AUTO 00000KT 10SM CLR 14/09 A2999 RMK AO1 T01350093
KBKS 141535Z AUTO 04003KT 10SM CLR 13/09 A2998 RMK AO1 T01310090
KBKS 141515Z AUTO 34005KT 10SM CLR 13/09 A2999 RMK AO1 T01250090
KBKS 141455Z AUTO 36003KT 10SM CLR 12/09 A2997 RMK AO1 T01180087
KBKS 141435Z AUTO 02003KT 10SM CLR 12/09 A2996 RMK AO1 T01150085
KBKS 141415Z AUTO 04003KT 10SM CLR 11/09 A2995 RMK AO1 T01130085
KBKS 141355Z AUTO 00000KT 10SM CLR 11/09 A2996 RMK AO1 T01100085
KBKS 141335Z AUTO 00000KT 10SM CLR 11/08 A2995 RMK AO1 T01060082
KBKS 141315Z AUTO 00000KT 10SM CLR 11/08 A2994 RMK AO1 T01050081
KBKS 141255Z AUTO 00000KT 10SM CLR 11/08 A2993 RMK AO1 T01050082
KBKS 141235Z AUTO 00000KT 10SM CLR 10/08 A2992 RMK AO1 T01020076
KBKS 141215Z AUTO 00000KT 10SM CLR 10/08 A2992 RMK AO1 T01020076
KBKS 141155Z AUTO 00000KT 10SM CLR 10/08 A2992 RMK AO1 T01010076 10123 20100
KBKS 141135Z AUTO 00000KT 10SM CLR 11/08 A2993 RMK AO1 T01060075
KBKS 141115Z AUTO 00000KT 10SM CLR 11/08 A2991 RMK AO1 T01050076
KBKS 141055Z AUTO 00000KT 10SM CLR 11/08 A2992 RMK AO1 T01050075
KBKS 141035Z AUTO 00000KT 10SM CLR 10/08 A2991 RMK AO1 T01030075
KBKS 141015Z AUTO 00000KT 10SM CLR 11/07 A2991 RMK AO1 T01080073
KBKS 140955Z AUTO 00000KT 10SM CLR 11/07 A2992 RMK AO1 T01050072